createdAt,value
2022-08-03T00:00:28.071Z,5.18
2022-08-03T00:02:54.869Z,7.38
2022-08-03T00:05:21.800Z,8.00
2022-08-03T00:07:49.474Z,7.67
2022-08-03T00:10:17.229Z,8.57
2022-08-03T00:12:44.201Z,7.30
2022-08-03T00:15:16.719Z,7.38
2022-08-03T00:17:53.293Z,5.38
2022-08-03T00:20:21.749Z,10.47
2022-08-03T00:22:48.938Z,8.05
2022-08-03T00:25:15.961Z,8.93
2022-08-03T00:27:42.908Z,9.02
2022-08-03T00:30:09.979Z,7.85
2022-08-03T00:32:36.865Z,7.93
2022-08-03T00:35:09.227Z,6.25
2022-08-03T00:37:40.866Z,6.93
2022-08-03T00:40:10.917Z,5.93
2022-08-03T00:42:56.970Z,9.48
2022-08-03T00:45:26.849Z,8.00
2022-08-03T00:47:54.506Z,7.78
2022-08-03T00:50:23.693Z,5.32
2022-08-03T00:52:52.837Z,8.73
2022-08-03T00:55:20.115Z,7.65
2022-08-03T00:57:47.568Z,11.00
2022-08-03T01:00:19.277Z,7.95
2022-08-03T01:02:46.634Z,9.13
2022-08-03T01:05:13.940Z,10.05
2022-08-03T01:08:05.761Z,5.72
2022-08-03T01:10:54.664Z,8.47
2022-08-03T01:14:18.665Z,9.88
2022-08-03T01:16:59.478Z,9.35
2022-08-03T01:19:50.471Z,10.00
2022-08-03T01:22:51.590Z,10.98
2022-08-03T01:25:54.315Z,7.70
2022-08-03T01:28:47.431Z,9.98
2022-08-03T01:31:18.787Z,10.38
2022-08-03T01:33:51.184Z,11.10
2022-08-03T01:36:24.802Z,8.57
2022-08-03T01:38:58.267Z,8.77
2022-08-03T01:41:30.703Z,11.15
2022-08-03T01:44:29.321Z,9.63
2022-08-03T01:46:49.191Z,10.48
2022-08-03T01:49:17.599Z,8.57
2022-08-03T01:51:58.421Z,11.13
2022-08-03T01:54:35.991Z,9.45
2022-08-03T01:57:03.957Z,8.85
2022-08-03T01:59:34.580Z,12.18
2022-08-03T02:02:28.934Z,9.10
2022-08-03T02:04:50.478Z,10.83
2022-08-03T02:07:17.800Z,7.55
2022-08-03T02:09:49.925Z,10.30
2022-08-03T02:12:18.004Z,10.38
2022-08-03T02:14:47.619Z,8.80
2022-08-03T02:17:15.906Z,8.93
2022-08-03T02:19:46.751Z,9.52
2022-08-03T02:22:15.190Z,13.35
2022-08-03T02:24:42.217Z,12.30
2022-08-03T02:27:24.238Z,9.10
2022-08-03T02:30:01.304Z,13.80
2022-08-03T02:32:35.686Z,7.75
2022-08-03T02:35:04.874Z,13.70
2022-08-03T02:37:34.598Z,10.55
2022-08-03T02:40:03.847Z,10.43
2022-08-03T02:42:34.077Z,11.97
2022-08-03T02:45:05.446Z,11.77
2022-08-03T02:47:53.972Z,10.73
2022-08-03T02:50:23.079Z,11.20
2022-08-03T02:52:50.985Z,12.02
2022-08-03T02:55:19.663Z,11.40
2022-08-03T02:57:47.442Z,9.15
2022-08-03T03:00:27.528Z,12.18
2022-08-03T03:03:00.453Z,13.75
2022-08-03T03:05:52.990Z,11.43
2022-08-03T03:08:18.598Z,13.60
2022-08-03T03:10:48.390Z,13.65
2022-08-03T03:13:22.525Z,9.45
2022-08-03T03:15:50.854Z,9.95
2022-08-03T03:18:22.276Z,14.95
2022-08-03T03:20:51.611Z,8.47
2022-08-03T03:23:20.160Z,12.27
2022-08-03T03:25:47.040Z,11.02
2022-08-03T03:28:14.997Z,11.80
2022-08-03T03:30:42.484Z,12.45
2022-08-03T03:33:09.439Z,13.63
2022-08-03T03:35:38.945Z,11.85
2022-08-03T03:38:07.113Z,13.15
2022-08-03T03:40:36.520Z,12.90
2022-08-03T03:43:06.920Z,9.43
2022-08-03T03:45:35.024Z,10.20
2022-08-03T03:48:03.980Z,13.68
2022-08-03T03:50:32.618Z,9.30
2022-08-03T03:52:59.766Z,11.23
2022-08-03T03:55:26.534Z,11.43
2022-08-03T03:57:53.285Z,12.37
2022-08-03T04:00:20.353Z,10.70
2022-08-03T04:02:47.314Z,13.85
2022-08-03T04:05:33.707Z,12.35
2022-08-03T04:08:18.982Z,11.10
2022-08-03T04:11:09.184Z,13.77
2022-08-03T04:13:50.530Z,12.32
2022-08-03T04:16:20.756Z,12.45
2022-08-03T04:18:52.448Z,11.60
2022-08-03T04:21:21.119Z,16.55
2022-08-03T04:23:51.651Z,9.57
2022-08-03T04:26:21.208Z,11.68
2022-08-03T04:28:50.452Z,10.68
2022-08-03T04:31:20.853Z,12.10
2022-08-03T04:33:48.588Z,15.10
2022-08-03T04:36:19.676Z,11.87
2022-08-03T04:39:00.041Z,11.10
2022-08-03T04:41:28.365Z,10.98
2022-08-03T04:43:57.893Z,11.43
2022-08-03T04:46:28.521Z,11.75
2022-08-03T04:48:56.461Z,12.53
2022-08-03T04:51:24.054Z,14.13
2022-08-03T04:53:50.852Z,13.68
2022-08-03T04:56:17.949Z,12.00
2022-08-03T04:58:45.270Z,10.88
2022-08-03T05:01:12.298Z,12.83
2022-08-03T05:03:39.077Z,11.20
2022-08-03T05:06:11.497Z,11.20
2022-08-03T05:08:46.040Z,11.32
2022-08-03T05:11:15.634Z,14.70
2022-08-03T05:13:42.794Z,15.87
2022-08-03T05:16:09.702Z,9.02
2022-08-03T05:18:36.481Z,14.52
2022-08-03T05:21:03.952Z,16.08
2022-08-03T05:23:31.174Z,14.35
2022-08-03T05:25:58.056Z,14.63
2022-08-03T05:28:24.808Z,13.40
2022-08-03T05:30:51.567Z,14.48
2022-08-03T05:33:18.310Z,11.48
2022-08-03T05:35:57.624Z,14.02
2022-08-03T05:38:35.124Z,11.90
2022-08-03T05:41:20.377Z,15.05
2022-08-03T05:43:52.158Z,13.50
2022-08-03T05:46:19.112Z,15.20
2022-08-03T05:48:45.928Z,12.02
2022-08-03T05:51:13.402Z,16.30
2022-08-03T05:53:41.854Z,18.65
2022-08-03T05:56:14.411Z,13.25
2022-08-03T05:58:44.395Z,14.80
2022-08-03T06:01:11.288Z,15.45
2022-08-03T06:03:38.271Z,16.50
2022-08-03T06:06:05.038Z,16.63
2022-08-03T06:08:32.002Z,9.15
2022-08-03T06:10:58.881Z,17.25
2022-08-03T06:13:25.701Z,17.80
2022-08-03T06:15:52.469Z,16.63
2022-08-03T06:18:19.277Z,12.98
2022-08-03T06:20:47.195Z,13.43
2022-08-03T06:23:17.817Z,17.40
2022-08-03T06:25:45.829Z,13.73
2022-08-03T06:28:35.349Z,14.07
2022-08-03T06:31:01.668Z,16.23
2022-08-03T06:33:48.450Z,14.85
2022-08-03T06:36:15.820Z,15.00
2022-08-03T06:38:42.955Z,11.85
2022-08-03T06:41:09.706Z,15.00
2022-08-03T06:43:37.814Z,15.85
2022-08-03T06:46:08.085Z,14.95
2022-08-03T06:48:34.949Z,15.20
2022-08-03T06:51:01.997Z,16.95
2022-08-03T06:53:28.704Z,14.37
2022-08-03T06:55:55.598Z,15.25
2022-08-03T06:58:22.966Z,14.73
2022-08-03T07:00:49.846Z,15.65
2022-08-03T07:03:17.364Z,15.35
2022-08-03T07:05:47.157Z,16.37
2022-08-03T07:08:14.733Z,17.77
2022-08-03T07:10:41.608Z,18.73
2022-08-03T07:13:08.824Z,14.10
2022-08-03T07:15:54.537Z,13.88
2022-08-03T07:18:27.608Z,14.10
2022-08-03T07:20:58.087Z,13.98
2022-08-03T07:23:25.651Z,16.95
2022-08-03T07:25:52.639Z,15.95
2022-08-03T07:28:20.003Z,19.15
2022-08-03T07:30:47.309Z,18.03
2022-08-03T07:33:15.152Z,18.13
2022-08-03T07:35:42.420Z,22.67
2022-08-03T07:38:09.134Z,16.20
2022-08-03T07:40:35.932Z,17.38
2022-08-03T07:43:03.807Z,13.43
2022-08-03T07:45:31.918Z,14.90
2022-08-03T07:47:58.796Z,11.20
2022-08-03T07:50:25.791Z,12.68
2022-08-03T07:52:54.039Z,18.25
2022-08-03T07:55:23.140Z,12.50
2022-08-03T07:58:01.158Z,15.13
2022-08-03T08:00:28.098Z,18.88
2022-08-03T08:02:54.899Z,12.45
2022-08-03T08:05:21.639Z,10.55
2022-08-03T08:07:51.149Z,17.03
2022-08-03T08:10:19.027Z,20.50
2022-08-03T08:12:46.241Z,17.85
2022-08-03T08:15:13.053Z,15.15
2022-08-03T08:17:48.775Z,14.30
2022-08-03T08:20:21.742Z,11.00
2022-08-03T08:22:56.945Z,16.42
2022-08-03T08:25:24.036Z,13.63
2022-08-03T08:28:30.527Z,17.85
2022-08-03T08:30:38.096Z,18.88
2022-08-03T08:33:04.868Z,11.37
2022-08-03T08:35:31.813Z,15.13
2022-08-03T08:38:05.602Z,19.05
2022-08-03T08:40:32.934Z,15.65
2022-08-03T08:42:59.824Z,15.63
2022-08-03T08:45:27.629Z,12.40
2022-08-03T08:48:00.840Z,18.00
2022-08-03T08:50:29.988Z,17.27
2022-08-03T08:53:01.846Z,15.27
2022-08-03T08:55:29.625Z,17.08
2022-08-03T08:58:21.030Z,13.17
2022-08-03T09:00:48.526Z,19.85
2022-08-03T09:03:29.449Z,19.75
2022-08-03T09:06:00.641Z,18.27
2022-08-03T09:08:28.788Z,13.88
2022-08-03T09:10:55.684Z,17.67
2022-08-03T09:13:22.634Z,16.33
2022-08-03T09:16:08.426Z,21.30
2022-08-03T09:18:35.170Z,17.52
2022-08-03T09:21:30.102Z,13.45
2022-08-03T09:24:02.785Z,16.67
2022-08-03T09:26:32.234Z,17.50
2022-08-03T09:29:13.874Z,18.25
2022-08-03T09:31:46.858Z,18.83
2022-08-03T09:34:17.886Z,15.05
2022-08-03T09:36:46.281Z,15.70
2022-08-03T09:39:15.257Z,18.73
2022-08-03T09:41:44.720Z,14.38
2022-08-03T09:44:24.367Z,15.77
2022-08-03T09:46:58.646Z,11.93
2022-08-03T09:49:25.562Z,14.47
2022-08-03T09:52:32.900Z,16.73
2022-08-03T09:54:42.260Z,13.07
2022-08-03T09:57:20.706Z,10.93
2022-08-03T09:59:47.702Z,13.40
2022-08-03T10:02:25.917Z,14.60
2022-08-03T10:04:54.229Z,12.00
2022-08-03T10:07:22.270Z,15.43
2022-08-03T10:10:30.044Z,14.75
2022-08-03T10:12:49.184Z,11.75
2022-08-03T10:16:21.712Z,16.40
2022-08-03T10:18:02.907Z,12.52
2022-08-03T10:20:30.181Z,10.43
2022-08-03T10:22:58.265Z,10.68
2022-08-03T10:25:33.008Z,12.10
2022-08-03T10:28:04.468Z,10.63
2022-08-03T10:30:33.350Z,11.27
2022-08-03T10:33:05.189Z,12.27
2022-08-03T10:35:57.180Z,13.50
2022-08-03T10:38:32.708Z,12.65
2022-08-03T10:41:00.321Z,13.87
2022-08-03T10:43:33.771Z,10.23
2022-08-03T10:46:03.300Z,11.57
2022-08-03T10:48:31.060Z,12.55
2022-08-03T10:50:58.107Z,14.07
2022-08-03T10:53:35.841Z,9.93
2022-08-03T10:56:46.600Z,11.95
2022-08-03T10:59:08.970Z,12.00
2022-08-03T11:01:59.974Z,13.80
2022-08-03T11:04:29.510Z,11.00
2022-08-03T11:07:23.692Z,11.13
2022-08-03T11:09:55.935Z,10.13
2022-08-03T11:12:31.072Z,10.45
2022-08-03T11:15:03.094Z,14.15
2022-08-03T11:17:30.428Z,9.63
2022-08-03T11:19:58.563Z,12.90
2022-08-03T11:22:28.954Z,10.27
2022-08-03T11:24:56.986Z,11.35
2022-08-03T11:27:27.774Z,13.88
2022-08-03T11:30:07.891Z,11.02
2022-08-03T11:32:39.802Z,11.10
2022-08-03T11:35:13.640Z,9.95
2022-08-03T11:38:05.061Z,10.27
2022-08-03T11:40:48.596Z,11.85
2022-08-03T11:43:31.687Z,11.02
2022-08-03T11:46:07.459Z,9.63
2022-08-03T11:48:37.221Z,8.55
2022-08-03T11:51:18.458Z,8.60
2022-08-03T11:53:47.738Z,11.90
2022-08-03T11:56:14.481Z,12.02
2022-08-03T11:59:11.044Z,9.57
2022-08-03T12:01:36.209Z,8.75
2022-08-03T12:04:05.238Z,9.30
2022-08-03T12:06:52.023Z,11.68
2022-08-03T12:09:18.741Z,10.32
2022-08-03T12:11:59.859Z,7.33
2022-08-03T12:14:50.547Z,12.18
2022-08-03T12:17:15.262Z,9.23
2022-08-03T12:19:43.612Z,7.85
2022-08-03T12:22:10.473Z,11.43
2022-08-03T12:24:44.218Z,12.33
2022-08-03T12:27:22.326Z,7.15
2022-08-03T12:29:57.294Z,13.13
2022-08-03T12:32:27.147Z,11.07
2022-08-03T12:34:54.415Z,8.60
2022-08-03T12:37:25.901Z,9.07
2022-08-03T12:40:03.008Z,10.57
2022-08-03T12:42:35.442Z,9.27
2022-08-03T12:45:25.753Z,9.95
2022-08-03T12:47:57.658Z,10.18
2022-08-03T12:50:33.965Z,9.20
2022-08-03T12:53:04.605Z,8.50
2022-08-03T12:55:56.370Z,9.07
2022-08-03T12:58:34.711Z,8.43
2022-08-03T13:01:05.152Z,9.38
2022-08-03T13:03:50.370Z,8.43
2022-08-03T13:06:24.894Z,8.60
2022-08-03T13:09:06.356Z,10.15
2022-08-03T13:11:57.931Z,7.68
2022-08-03T13:14:20.805Z,9.40
2022-08-03T13:16:49.126Z,7.30
2022-08-03T13:19:16.256Z,10.18
2022-08-03T13:21:53.800Z,9.90
2022-08-03T13:24:31.970Z,9.75
2022-08-03T13:27:00.391Z,5.63
2022-08-03T13:29:27.343Z,8.13
2022-08-03T13:31:54.223Z,6.25
2022-08-03T13:34:23.826Z,5.05
2022-08-03T13:37:10.298Z,5.43
2022-08-03T13:39:58.130Z,5.35
2022-08-03T13:42:25.180Z,8.20
2022-08-03T13:44:52.020Z,8.85
2022-08-03T13:47:19.859Z,7.10
2022-08-03T13:49:59.378Z,5.40
2022-08-03T13:52:28.219Z,8.15
2022-08-03T13:54:55.327Z,8.63
2022-08-03T13:58:02.453Z,9.15
2022-08-03T14:00:09.923Z,6.65
2022-08-03T14:02:37.144Z,7.05
2022-08-03T14:05:04.500Z,10.60
2022-08-03T14:07:31.380Z,5.80
2022-08-03T14:09:58.354Z,8.35
2022-08-03T14:12:25.171Z,7.00
2022-08-03T14:14:51.957Z,8.73
2022-08-03T14:17:19.046Z,6.55
2022-08-03T14:19:53.475Z,7.77
2022-08-03T14:22:21.230Z,7.90
2022-08-03T14:24:49.226Z,7.72
2022-08-03T14:27:16.701Z,5.28
2022-08-03T14:29:43.679Z,8.25
2022-08-03T14:32:13.098Z,7.83
2022-08-03T14:34:41.009Z,6.43
2022-08-03T14:37:08.192Z,6.72
2022-08-03T14:42:21.850Z,9.52
2022-08-03T14:44:48.640Z,7.97
2022-08-03T14:47:15.562Z,9.52
2022-08-03T14:50:36.512Z,7.03
2022-08-03T14:52:32.513Z,6.90
2022-08-03T14:55:00.388Z,8.38
2022-08-03T14:57:27.774Z,9.00
2022-08-03T14:59:57.063Z,8.23
2022-08-03T15:02:25.117Z,11.27
2022-08-03T15:04:52.768Z,4.68
2022-08-03T15:07:20.742Z,6.18
2022-08-03T15:09:47.831Z,7.57
2022-08-03T15:12:14.656Z,4.97
2022-08-03T15:14:41.499Z,6.47
2022-08-03T15:17:08.378Z,6.55
2022-08-03T15:20:02.236Z,6.68
2022-08-03T15:22:25.306Z,7.67
2022-08-03T15:26:28.962Z,9.27
2022-08-03T15:28:04.318Z,10.27
2022-08-03T15:30:35.842Z,6.22
2022-08-03T15:33:03.221Z,6.43
2022-08-03T15:35:30.130Z,10.27
2022-08-03T15:37:57.046Z,7.22
2022-08-03T15:40:23.858Z,8.75
2022-08-03T15:42:50.625Z,6.05
2022-08-03T15:45:17.972Z,11.70
2022-08-03T15:47:47.313Z,10.43
2022-08-03T15:50:14.057Z,6.07
2022-08-03T15:52:40.900Z,6.35
2022-08-03T15:55:08.488Z,5.65
2022-08-03T15:59:03.478Z,10.77
2022-08-03T16:00:33.367Z,7.80
2022-08-03T16:03:01.704Z,7.00
2022-08-03T16:05:29.394Z,8.25
2022-08-03T16:08:03.178Z,7.90
2022-08-03T16:10:31.615Z,5.22
2022-08-03T16:13:00.019Z,8.73
2022-08-03T16:15:27.608Z,8.07
2022-08-03T16:17:54.502Z,5.78
2022-08-03T16:20:31.699Z,4.45
2022-08-03T16:23:06.989Z,6.15
2022-08-03T16:25:38.439Z,5.47
2022-08-03T16:28:07.887Z,5.35
2022-08-03T16:30:40.984Z,6.20
2022-08-03T16:33:08.118Z,6.75
2022-08-03T16:35:34.997Z,6.07
2022-08-03T16:38:04.394Z,5.37
2022-08-03T16:40:33.788Z,4.80
2022-08-03T16:43:00.705Z,5.40
2022-08-03T16:45:27.602Z,7.75
2022-08-03T16:48:05.057Z,4.47
2022-08-03T16:50:33.315Z,5.40
2022-08-03T16:53:00.175Z,10.05
2022-08-03T16:55:43.251Z,7.55
2022-08-03T16:58:16.386Z,6.97
2022-08-03T17:00:44.282Z,7.82
2022-08-03T17:03:20.556Z,7.13
2022-08-03T17:05:51.150Z,7.05
2022-08-03T17:08:26.757Z,6.13
2022-08-03T17:10:55.046Z,9.00
2022-08-03T17:13:22.739Z,6.85
2022-08-03T17:16:00.727Z,11.67
2022-08-03T17:18:35.188Z,7.07
2022-08-03T17:21:06.750Z,7.40
2022-08-03T17:23:58.576Z,8.27
2022-08-03T17:26:30.565Z,10.85
2022-08-03T17:29:13.241Z,7.83
2022-08-03T17:31:49.076Z,5.90
2022-08-03T17:34:17.124Z,5.47
2022-08-03T17:37:03.632Z,8.25
2022-08-03T17:39:56.850Z,6.68
2022-08-03T17:42:38.941Z,4.37
2022-08-03T17:45:06.746Z,11.05
2022-08-03T17:47:42.405Z,6.82
2022-08-03T17:50:25.379Z,6.80
2022-08-03T17:53:15.149Z,7.05
2022-08-03T17:55:56.581Z,7.27
2022-08-03T17:58:54.708Z,8.23
2022-08-03T18:04:46.423Z,7.22
2022-08-03T18:07:25.615Z,5.63
2022-08-03T18:10:12.118Z,7.50
2022-08-03T18:12:51.837Z,6.22
2022-08-03T18:15:37.222Z,10.25
2022-08-03T18:18:10.428Z,5.95
2022-08-03T18:20:41.703Z,6.93
2022-08-03T18:23:11.625Z,8.33
2022-08-03T18:25:57.935Z,5.53
2022-08-03T18:28:27.424Z,5.28
2022-08-03T18:30:56.232Z,8.68
2022-08-03T18:36:17.991Z,7.73
2022-08-03T18:38:50.983Z,7.28
2022-08-03T18:41:31.750Z,5.88
2022-08-03T18:44:07.119Z,5.32
2022-08-03T18:47:16.467Z,8.10
2022-08-03T18:49:59.937Z,5.77
2022-08-03T18:52:38.238Z,7.55
2022-08-03T18:55:32.782Z,5.07
2022-08-03T18:58:09.433Z,8.68
2022-08-03T19:02:00.881Z,5.75
2022-08-03T19:04:15.021Z,4.63
2022-08-03T19:06:45.758Z,6.38
2022-08-03T19:09:27.852Z,6.60
2022-08-03T19:12:26.140Z,5.07
2022-08-03T19:15:01.631Z,7.60
2022-08-03T19:17:33.027Z,6.17
2022-08-03T19:20:05.201Z,11.77
2022-08-03T19:22:39.784Z,5.28
2022-08-03T19:25:15.013Z,5.72
2022-08-03T19:27:45.374Z,6.78
2022-08-03T19:30:34.612Z,7.27
2022-08-03T19:33:09.168Z,6.57
2022-08-03T19:35:49.761Z,6.25
2022-08-03T19:38:29.235Z,6.75
2022-08-03T19:41:01.387Z,5.13
2022-08-03T19:43:52.829Z,4.53
2022-08-03T19:46:31.135Z,5.13
2022-08-03T19:49:15.137Z,7.32
2022-08-03T19:51:59.035Z,4.93
2022-08-03T19:54:52.961Z,6.82
2022-08-03T19:57:24.403Z,6.20
2022-08-03T19:59:53.460Z,5.65
2022-08-03T20:02:26.916Z,5.10
2022-08-03T20:04:59.926Z,4.70
2022-08-03T20:07:29.002Z,6.28
2022-08-03T20:09:57.440Z,6.37
2022-08-03T20:12:28.016Z,6.93
2022-08-03T20:14:58.889Z,4.78
2022-08-03T20:17:56.018Z,5.60
2022-08-03T20:20:18.510Z,5.55
2022-08-03T20:22:51.206Z,5.73
2022-08-03T20:25:26.403Z,5.38
2022-08-03T20:28:15.185Z,4.95
2022-08-03T20:30:47.725Z,8.10
2022-08-03T20:33:18.983Z,4.93
2022-08-03T20:35:49.311Z,6.17
2022-08-03T20:38:18.638Z,6.30
2022-08-03T20:40:48.891Z,4.30
2022-08-03T20:43:16.362Z,6.45
2022-08-03T20:45:59.884Z,5.45
2022-08-03T20:48:34.576Z,4.20
2022-08-03T20:51:02.203Z,5.28
2022-08-03T20:54:00.275Z,5.97
2022-08-03T20:56:17.077Z,6.03
2022-08-03T20:58:50.183Z,5.57
2022-08-03T21:01:17.869Z,7.17
2022-08-03T21:03:55.627Z,5.90
2022-08-03T21:06:27.781Z,5.20
2022-08-03T21:09:03.966Z,12.23
2022-08-03T21:11:43.374Z,6.53
2022-08-03T21:12:56.257Z,7.18
2022-08-03T21:13:04.655Z,7.45
2022-08-03T21:14:23.087Z,8.60
2022-08-03T21:16:51.930Z,5.38
2022-08-03T21:19:22.586Z,5.30
2022-08-03T21:21:50.246Z,6.30
2022-08-03T21:24:19.594Z,7.57
2022-08-03T21:26:49.296Z,6.90
2022-08-03T21:29:16.852Z,7.10
2022-08-03T21:31:44.335Z,5.75
2022-08-03T21:34:11.181Z,12.48
2022-08-03T21:36:38.073Z,7.72
2022-08-03T21:39:08.232Z,5.73
2022-08-03T21:41:37.131Z,6.20
2022-08-03T21:44:05.466Z,6.97
2022-08-03T21:46:41.152Z,7.22
2022-08-03T21:49:51.741Z,5.78
2022-08-03T21:51:59.580Z,4.83
2022-08-03T21:54:37.663Z,8.73
2022-08-03T21:57:13.034Z,6.63
2022-08-03T21:59:47.850Z,7.00
2022-08-03T22:02:22.647Z,7.57
2022-08-03T22:04:56.436Z,4.90
2022-08-03T22:07:29.166Z,7.07
2022-08-03T22:09:56.726Z,7.03
2022-08-03T22:12:25.687Z,7.00
2022-08-03T22:15:01.064Z,5.80
2022-08-03T22:17:54.748Z,7.57
2022-08-03T22:20:16.725Z,7.95
2022-08-03T22:22:55.300Z,8.48
2022-08-03T22:25:28.549Z,9.07
2022-08-03T22:27:55.782Z,8.45
2022-08-03T22:30:22.766Z,8.80
2022-08-03T22:32:51.844Z,7.78
2022-08-03T22:35:21.318Z,7.13
2022-08-03T22:37:54.250Z,4.55
2022-08-03T22:40:21.118Z,5.47
2022-08-03T22:42:52.348Z,7.27
2022-08-03T22:46:08.014Z,8.38
2022-08-03T22:48:08.171Z,5.97
2022-08-03T22:50:35.276Z,7.05
2022-08-03T22:53:02.822Z,6.22
2022-08-03T22:55:29.825Z,4.07
2022-08-03T22:57:56.703Z,5.25
2022-08-03T23:00:24.259Z,6.65
2022-08-03T23:02:54.012Z,4.28
2022-08-03T23:06:01.693Z,5.88
2022-08-03T23:08:19.975Z,6.50
2022-08-03T23:10:48.618Z,5.72
2022-08-03T23:13:17.414Z,4.95
2022-08-03T23:15:50.774Z,7.03
2022-08-03T23:18:20.713Z,6.55
2022-08-03T23:20:51.390Z,6.17
2022-08-03T23:23:20.627Z,6.45
2022-08-03T23:25:49.529Z,4.50
2022-08-03T23:28:17.191Z,6.88
2022-08-03T23:30:45.337Z,5.03
2022-08-03T23:33:15.208Z,5.17
2022-08-03T23:36:29.005Z,4.35
2022-08-03T23:38:46.003Z,5.18
2022-08-03T23:41:13.401Z,5.03
2022-08-03T23:43:52.048Z,6.40
2022-08-03T23:46:22.400Z,5.50
2022-08-03T23:48:50.226Z,5.57
2022-08-03T23:51:38.902Z,6.15
2022-08-03T23:54:33.157Z,7.30
2022-08-03T23:57:15.422Z,4.32
